Aérodrome :
LOGIN :

S'inscrire | Disclaimer

   EN    FR    IT 

 










Légende :    VFR   VFR Marginal   IFR   IFR Intensif   IFR Très Intensif
Visi : 
Plafond : 
>= 8 km
>= 3000ft
5 à 8 km
1000 à 3000 ft
1500m à 5 km
500 à 1000 ft
800 à 1500m
200 à 500 ft
< 800m
< 200 ft
Symboles :   Orages  Brouillard  Fortes neiges  Fortes précipitations  Vent > 20 kt
SIGMETs :   Divers  Orages  Givrage  Turbulence  Onde Orograph.  Cendres Volcan.






- Altitude de l'aérodrome : 131 ft
- Code IATA : TLL


EETN - Talinn

DERNIER METAR :
  • 010350Z 07006KT 1300 0300E R08/P2000N BR BCFG BKN002 10/10 Q1018 TEMPO 0400 FG

METARs EXPIRÉS :
  • 010320Z 08006KT 6000 BCFG SCT002 09/09 Q1018
  • 010250Z 08005KT 2900 0800W R08/P2000U BR BCFG SCT004 07/07 Q1018
  • 010220Z 08004KT 0600 R08/1600U FG VV002 09/08 Q1018
  • 010150Z 07004KT 0250 R08/0750N FG VV001 09/09 Q1018
  • 010120Z 08005KT 0200 R08/0700N FG VV001 09/09 Q1019

TAF TAF EETN
Valide du 01 à 00h jusqu'au 02 à 00h UTC


302330Z 0100/0124 09008KT 0300 FG VV002
TEMPO 0103/0107 2000 BR BCFG BKN003
BECMG 0107/0109 9999 NSW SCT010 BKN020



MET'MAP, la Météo Aéronautique d'un coup d'oeil ! - Copyright ORBIFLY Décembre 2007 - Disclaimer

ORBIFLY MET'MAP TEAM :

Programmation & Développement : Alexandra Zaïnal
Sur une idée originale de : Baudouin d'Aumeries
Assistance à la programmation : Marc-Olivier Méhu
Soutien technique & logistique : Manuel Goepfert

Contact : metmap@orbifly.com




SOURCES & CREDITS :

   NOAA